Time;durP1;ratioP1;P1;durP2;ratioP2;P2;SDS_P1;SDS_P2;PMS_P1;PMS_P2;Temp;Humidity;BMP_temperature;BMP_pressure;BME280_temperature;BME280_humidity;BME280_pressure;Samples;Min_cycle;Max_cycle;Signal;HPM_P1;HPM_P2
2023/11/27 00:02:10;;;;;;;0.13;0.13;;;10.60;90.10;;;;;;6243282;22;20023;-87
2023/11/27 00:04:37;;;;;;;0.13;0.13;;;10.60;93.40;;;;;;6298305;22;20110;-86
2023/11/27 00:07:04;;;;;;;0.10;0.10;;;10.70;94.70;;;;;;6298453;22;20019;-87
2023/11/27 00:09:31;;;;;;;0.20;0.20;;;10.70;97.20;;;;;;6244387;22;20023;-90
2023/11/27 00:12:02;;;;;;;0.20;0.20;;;10.60;98.30;;;;;;6246172;22;20110;-88
2023/11/27 00:14:30;;;;;;;0.20;0.20;;;10.70;99.90;;;;;;6299323;22;20355;-89
2023/11/27 00:16:57;;;;;;;0.77;0.30;;;10.70;99.90;;;;;;6298669;22;20015;-88
2023/11/27 00:19:26;;;;;;;0.35;0.35;;;10.60;99.90;;;;;;6271473;22;20019;-89
2023/11/27 00:21:53;;;;;;;0.50;0.40;;;10.60;99.90;;;;;;6298088;22;20461;-90
2023/11/27 00:24:20;;;;;;;0.70;0.30;;;10.60;99.90;;;;;;6298952;22;20062;-89
2023/11/27 00:26:47;;;;;;;1.42;0.52;;;10.60;99.90;;;;;;6273449;22;20093;-89
2023/11/27 00:29:15;;;;;;;0.43;0.25;;;10.60;99.90;;;;;;6300611;22;20019;-89
2023/11/27 00:31:43;;;;;;;0.63;0.47;;;10.70;99.90;;;;;;6248903;22;20361;-91
2023/11/27 00:34:10;;;;;;;0.50;0.35;;;10.60;97.70;;;;;;6274900;22;20034;-91
2023/11/27 00:36:39;;;;;;;1.02;0.50;;;10.60;96.00;;;;;;6250391;22;20023;-90
2023/11/27 00:39:08;;;;;;;1.17;0.50;;;10.60;89.20;;;;;;6274675;22;20548;-89
2023/11/27 00:41:35;;;;;;;1.50;0.50;;;10.60;90.70;;;;;;6274673;22;20100;-89
2023/11/27 00:44:02;;;;;;;1.17;0.70;;;10.50;90.10;;;;;;6275112;22;20023;-90
2023/11/27 00:46:29;;;;;;;1.10;0.70;;;10.50;83.90;;;;;;6274723;22;20019;-89
2023/11/27 00:48:57;;;;;;;1.45;0.80;;;10.60;54.40;;;;;;6302342;22;20580;-92
2023/11/27 00:51:24;;;;;;;1.52;0.80;;;10.50;24.40;;;;;;6301675;22;20015;-92
2023/11/27 00:53:52;;;;;;;2.13;0.60;;;10.50;25.30;;;;;;6272378;22;20092;-91
2023/11/27 00:56:19;;;;;;;0.90;0.70;;;10.50;1.50;;;;;;6300515;22;20379;-89
2023/11/27 00:58:47;;;;;;;1.77;0.80;;;10.50;1.00;;;;;;6271387;22;20023;-88
2023/11/27 01:01:14;;;;;;;3.25;0.80;;;10.50;1.00;;;;;;6222292;22;20445;-90
2023/11/27 01:03:42;;;;;;;1.52;0.98;;;10.50;1.00;;;;;;6222873;22;20034;-91
2023/11/27 01:06:13;;;;;;;2.63;0.90;;;10.50;1.00;;;;;;6222974;22;20015;-89
2023/11/27 01:08:44;;;;;;;2.08;0.82;;;10.50;1.00;;;;;;6275592;22;20026;-88
2023/11/27 01:11:11;;;;;;;0.88;0.82;;;10.40;1.00;;;;;;6276852;22;20019;-89
2023/11/27 01:13:40;;;;;;;2.10;0.73;;;10.50;1.00;;;;;;6304041;22;20015;-89
2023/11/27 01:16:07;;;;;;;3.15;1.08;;;10.40;1.00;;;;;;6277723;22;20034;-89
2023/11/27 01:18:36;;;;;;;1.30;0.80;;;10.40;1.00;;;;;;6303905;22;20104;-87
2023/11/27 01:21:05;;;;;;;1.38;0.60;;;10.40;1.00;;;;;;6251430;22;20019;-88
2023/11/27 01:23:31;;;;;;;1.20;0.60;;;10.40;1.00;;;;;;6273927;22;20027;-87
2023/11/27 01:25:58;;;;;;;1.15;0.65;;;10.40;1.20;;;;;;6274294;22;20065;-86
2023/11/27 01:28:25;;;;;;;1.27;0.70;;;10.40;9.40;;;;;;6300360;22;20023;-88
2023/11/27 01:30:52;;;;;;;0.60;0.50;;;10.40;11.40;;;;;;6273498;22;20023;-87
2023/11/27 01:33:19;;;;;;;0.65;0.50;;;10.40;14.90;;;;;;6248372;22;20019;-88
2023/11/27 01:35:53;;;;;;;0.90;0.60;;;10.40;16.10;;;;;;6301856;22;20023;-87
2023/11/27 01:38:21;;;;;;;1.45;0.50;;;10.40;20.40;;;;;;6275333;22;20019;-90
2023/11/27 01:40:47;;;;;;;2.17;0.65;;;10.40;10.00;;;;;;6301827;22;20325;-88
2023/11/27 01:43:14;;;;;;;1.13;0.63;;;10.40;1.00;;;;;;6301724;22;20461;-88
2023/11/27 01:45:42;;;;;;;0.70;0.52;;;10.40;1.00;;;;;;6302806;22;20043;-90
2023/11/27 01:48:12;;;;;;;1.10;0.70;;;10.30;1.00;;;;;;6276166;22;20019;-89
2023/11/27 01:50:40;;;;;;;0.80;0.30;;;10.30;1.00;;;;;;6302928;22;20023;-89
2023/11/27 01:53:07;;;;;;;1.63;0.90;;;10.30;1.00;;;;;;6225101;22;20119;-88
2023/11/27 01:55:33;;;;;;;0.40;0.40;;;10.30;1.00;;;;;;6303356;22;20031;-89
2023/11/27 01:58:00;;;;;;;1.17;0.50;;;10.30;1.00;;;;;;6301365;22;20042;-88
2023/11/27 02:00:28;;;;;;;0.70;0.40;;;10.20;1.00;;;;;;6273535;22;20305;-89
2023/11/27 02:02:54;;;;;;;0.30;0.30;;;10.20;1.00;;;;;;6247634;22;20077;-90
2023/11/27 02:05:21;;;;;;;3.42;0.80;;;10.20;1.00;;;;;;6301284;22;20016;-91
2023/11/27 02:07:49;;;;;;;0.30;0.20;;;10.20;1.00;;;;;;6302593;22;20030;-91
2023/11/27 02:10:16;;;;;;;1.23;0.55;;;10.20;1.00;;;;;;6303664;22;20038;-89
2023/11/27 02:12:43;;;;;;;0.95;0.52;;;10.10;1.00;;;;;;6276292;22;20023;-89
2023/11/27 02:15:11;;;;;;;1.13;0.50;;;10.20;1.00;;;;;;6303488;22;20246;-88
2023/11/27 02:17:38;;;;;;;1.00;0.50;;;10.20;1.00;;;;;;6302265;22;20088;-89
2023/11/27 02:20:06;;;;;;;0.60;0.40;;;10.10;1.00;;;;;;6303182;22;20023;-91
2023/11/27 02:22:34;;;;;;;0.88;0.30;;;10.10;1.00;;;;;;6304033;22;20030;-90
2023/11/27 02:25:03;;;;;;;1.40;0.75;;;10.10;1.00;;;;;;6276152;22;20023;-88
2023/11/27 02:27:33;;;;;;;0.32;0.30;;;10.10;1.00;;;;;;6304485;22;20022;-91
2023/11/27 02:30:00;;;;;;;1.55;0.52;;;10.10;1.00;;;;;;6225568;22;20084;-89
2023/11/27 02:32:32;;;;;;;1.55;0.50;;;10.10;1.00;;;;;;6305595;22;20118;-89
2023/11/27 02:35:01;;;;;;;1.17;0.30;;;10.10;1.00;;;;;;6278991;22;20047;-89
2023/11/27 02:37:35;;;;;;;0.60;0.30;;;10.10;1.00;;;;;;6253475;22;20015;-90
2023/11/27 02:40:05;;;;;;;0.17;0.17;;;10.10;99.90;;;;;;6306833;22;20023;-88
2023/11/27 02:42:33;;;;;;;0.52;0.30;;;10.10;99.90;;;;;;6307074;22;20064;-88
2023/11/27 02:45:00;;;;;;;0.77;0.40;;;10.10;99.90;;;;;;6307075;22;20030;-88
2023/11/27 02:47:27;;;;;;;0.57;0.35;;;10.10;99.90;;;;;;6278496;22;20015;-88
2023/11/27 02:49:56;;;;;;;0.63;0.22;;;10.10;99.90;;;;;;6279087;22;20031;-88
2023/11/27 02:52:23;;;;;;;0.35;0.30;;;10.10;99.90;;;;;;6279372;22;20065;-88
2023/11/27 02:54:50;;;;;;;0.20;0.20;;;10.10;99.90;;;;;;6305235;22;20430;-89
2023/11/27 02:57:20;;;;;;;0.75;0.20;;;10.10;99.90;;;;;;6306576;22;20125;-89
2023/11/27 02:59:53;;;;;;;0.57;0.30;;;10.10;99.90;;;;;;6253470;22;20030;-89
2023/11/27 03:02:27;;;;;;;0.98;0.52;;;10.10;99.90;;;;;;6253869;22;20023;-88
2023/11/27 03:04:55;;;;;;;0.38;0.20;;;10.10;99.90;;;;;;6306688;22;20016;-88
2023/11/27 03:07:22;;;;;;;0.50;0.30;;;10.10;99.90;;;;;;6279749;22;20057;-89
2023/11/27 03:09:49;;;;;;;0.90;0.40;;;10.10;99.90;;;;;;6279857;22;20019;-89
2023/11/27 03:12:16;;;;;;;0.55;0.30;;;10.10;99.90;;;;;;6306301;22;20643;-88
2023/11/27 03:14:47;;;;;;;0.60;0.20;;;10.10;99.90;;;;;;6228586;22;20456;-87
2023/11/27 03:17:15;;;;;;;1.77;0.50;;;10.10;99.90;;;;;;6305031;22;20019;-86
2023/11/27 03:19:43;;;;;;;0.35;0.30;;;10.10;99.90;;;;;;6277473;22;20019;-87
2023/11/27 03:22:14;;;;;;;0.93;0.40;;;10.10;99.90;;;;;;6304576;22;20061;-87
2023/11/27 03:24:42;;;;;;;0.75;0.30;;;10.10;99.90;;;;;;6304485;22;20019;-87
2023/11/27 03:27:17;;;;;;;0.85;0.40;;;10.00;99.90;;;;;;6305999;22;20015;-87
2023/11/27 03:29:49;;;;;;;1.33;0.40;;;10.00;99.90;;;;;;6253673;22;20019;-86
2023/11/27 03:32:17;;;;;;;1.25;0.50;;;10.00;99.90;;;;;;6306152;22;20015;-89
2023/11/27 03:34:46;;;;;;;0.73;0.30;;;9.90;1.00;;;;;;6306767;22;20025;-89
2023/11/27 03:37:20;;;;;;;0.52;0.30;;;9.90;1.00;;;;;;6306895;22;20019;-91
2023/11/27 03:39:47;;;;;;;0.32;0.20;;;10.00;1.00;;;;;;6306980;22;20046;-89
2023/11/27 03:42:15;;;;;;;0.30;0.30;;;9.90;1.00;;;;;;6306840;22;20019;-90
2023/11/27 03:44:49;;;;;;;0.75;0.38;;;9.90;1.00;;;;;;6307144;22;20069;-90
2023/11/27 03:47:18;;;;;;;1.50;0.40;;;9.90;1.00;;;;;;6306877;22;20027;-90
2023/11/27 03:49:45;;;;;;;0.65;0.30;;;9.90;1.00;;;;;;6280218;22;20085;-90
2023/11/27 03:52:13;;;;;;;0.20;0.20;;;9.90;1.00;;;;;;6280487;22;20053;-92
2023/11/27 03:54:42;;;;;;;0.65;0.28;;;9.90;1.00;;;;;;6305947;22;20054;-90
2023/11/27 03:57:11;;;;;;;1.65;0.50;;;9.90;1.00;;;;;;6307751;22;20019;-89
2023/11/27 03:59:45;;;;;;;1.17;0.45;;;9.90;1.00;;;;;;6307552;22;20084;-91
2023/11/27 04:02:12;;;;;;;1.10;0.60;;;9.90;1.00;;;;;;6280575;22;20019;-91
2023/11/27 04:04:41;;;;;;;0.35;0.30;;;9.90;1.00;;;;;;6281315;22;20019;-91
2023/11/27 04:07:08;;;;;;;1.20;0.40;;;9.90;1.00;;;;;;6307272;22;20102;-89
2023/11/27 04:09:37;;;;;;;0.60;0.35;;;9.90;1.00;;;;;;6305923;22;20019;-87
2023/11/27 04:12:05;;;;;;;2.08;0.40;;;9.90;1.00;;;;;;6305466;22;20050;-88
2023/11/27 04:14:37;;;;;;;0.10;0.10;;;9.90;1.00;;;;;;6278486;22;20453;-89
2023/11/27 04:17:12;;;;;;;0.85;0.30;;;9.90;1.00;;;;;;6305997;22;20015;-88
2023/11/27 04:19:45;;;;;;;0.68;0.22;;;9.90;1.00;;;;;;6305903;22;20027;-88
2023/11/27 04:22:14;;;;;;;0.38;0.22;;;9.80;1.00;;;;;;6278111;22;20038;-88
2023/11/27 04:24:46;;;;;;;0.70;0.28;;;9.80;60.40;;;;;;6305248;22;20022;-88
2023/11/27 04:27:17;;;;;;;0.98;0.50;;;9.80;93.60;;;;;;6305323;22;20179;-87
2023/11/27 04:29:49;;;;;;;0.80;0.47;;;9.70;99.90;;;;;;6305800;22;20022;-88
2023/11/27 04:32:20;;;;;;;1.42;0.40;;;9.70;99.90;;;;;;6255743;22;20433;-86
2023/11/27 04:34:50;;;;;;;0.55;0.50;;;9.70;99.90;;;;;;6278603;22;20347;-87
2023/11/27 04:37:18;;;;;;;0.70;0.40;;;9.70;99.90;;;;;;6279344;22;20080;-89
2023/11/27 04:39:45;;;;;;;0.50;0.35;;;9.70;99.90;;;;;;6305925;22;20022;-89
2023/11/27 04:42:16;;;;;;;0.47;0.38;;;9.70;99.90;;;;;;6306101;22;20034;-88
2023/11/27 04:44:43;;;;;;;1.10;0.50;;;9.70;99.90;;;;;;6279374;22;20019;-88
2023/11/27 04:47:09;;;;;;;0.50;0.40;;;9.60;99.90;;;;;;6306651;22;20019;-88
2023/11/27 04:49:38;;;;;;;1.45;0.50;;;9.60;99.90;;;;;;6306390;22;20023;-88
2023/11/27 04:52:06;;;;;;;0.47;0.40;;;9.60;99.90;;;;;;6306513;22;20073;-87
2023/11/27 04:54:35;;;;;;;0.45;0.40;;;9.60;99.90;;;;;;6304841;22;20030;-88
2023/11/27 04:57:03;;;;;;;0.85;0.52;;;9.60;99.90;;;;;;6277528;22;20023;-87
2023/11/27 04:59:30;;;;;;;0.98;0.43;;;9.60;99.90;;;;;;6305087;22;20364;-87
2023/11/27 05:01:57;;;;;;;1.42;0.50;;;9.60;99.90;;;;;;6304970;22;20027;-87
2023/11/27 05:04:29;;;;;;;0.50;0.40;;;9.60;99.90;;;;;;6278108;22;20038;-87
2023/11/27 05:06:58;;;;;;;0.55;0.55;;;9.60;99.90;;;;;;6252563;22;20072;-88
2023/11/27 05:09:27;;;;;;;0.60;0.43;;;9.60;99.90;;;;;;6303679;22;20019;-88
2023/11/27 05:11:59;;;;;;;1.05;0.50;;;9.60;99.90;;;;;;6277503;22;20030;-88
2023/11/27 05:14:28;;;;;;;2.13;1.23;;;9.60;99.90;;;;;;6304126;22;20015;-86
2023/11/27 05:16:55;;;;;;;1.17;0.68;;;9.60;99.90;;;;;;6277546;22;20019;-86
2023/11/27 05:19:35;;;;;;;1.52;0.80;;;9.50;99.90;;;;;;6304679;22;20022;-87
2023/11/27 05:22:04;;;;;;;1.05;0.70;;;9.50;99.90;;;;;;6303401;22;20024;-87
2023/11/27 05:24:30;;;;;;;1.27;0.82;;;9.50;99.90;;;;;;6251904;22;20027;-87
2023/11/27 05:26:57;;;;;;;1.38;1.27;;;9.50;99.90;;;;;;6252369;22;20035;-88
2023/11/27 05:29:29;;;;;;;1.38;0.70;;;9.50;99.90;;;;;;6278907;22;20026;-88
2023/11/27 05:32:07;;;;;;;1.15;0.70;;;9.50;99.90;;;;;;6304556;22;20023;-88
2023/11/27 05:34:42;;;;;;;3.38;1.27;;;9.50;99.90;;;;;;5068867;28;20376;-93
2023/11/27 05:37:09;;;;;;;0.73;0.60;;;9.50;99.90;;;;;;5067686;28;20043;-91
2023/11/27 05:39:37;;;;;;;1.10;0.68;;;9.50;99.90;;;;;;5050981;28;20441;-91
2023/11/27 05:42:12;;;;;;;0.77;0.68;;;9.50;99.90;;;;;;5051126;28;20516;-89
2023/11/27 05:44:40;;;;;;;1.58;0.70;;;9.50;99.90;;;;;;5068258;28;20053;-90
2023/11/27 05:47:08;;;;;;;1.63;0.77;;;9.40;99.90;;;;;;5068702;28;20144;-91
2023/11/27 05:49:37;;;;;;;0.63;0.60;;;9.50;99.90;;;;;;5065451;28;20048;-90
2023/11/27 05:52:06;;;;;;;1.38;1.05;;;9.50;99.90;;;;;;5059915;28;20371;-90
2023/11/27 05:54:34;;;;;;;1.02;0.70;;;9.50;99.90;;;;;;5045451;28;20056;-91
2023/11/27 05:57:02;;;;;;;0.73;0.50;;;9.40;99.90;;;;;;5045794;28;20072;-89
2023/11/27 05:59:29;;;;;;;0.60;0.50;;;9.40;99.90;;;;;;5028491;28;20148;-91
2023/11/27 06:01:55;;;;;;;1.10;0.50;;;9.40;99.90;;;;;;5045210;28;20054;-91
2023/11/27 06:04:22;;;;;;;0.60;0.52;;;9.40;99.90;;;;;;5042813;28;20126;-90
2023/11/27 06:06:51;;;;;;;0.60;0.50;;;9.40;99.90;;;;;;5035894;28;20053;-91
2023/11/27 06:09:18;;;;;;;0.85;0.70;;;9.40;99.90;;;;;;5036106;28;20048;-92
2023/11/27 06:11:46;;;;;;;1.35;0.70;;;9.40;99.90;;;;;;5044669;28;20764;-92
2023/11/27 06:14:23;;;;;;;0.63;0.60;;;9.40;99.90;;;;;;5045730;28;20049;-91
2023/11/27 06:16:50;;;;;;;1.25;0.63;;;9.40;99.90;;;;;;5039524;28;20103;-93
2023/11/27 06:19:19;;;;;;;1.23;0.70;;;9.40;99.90;;;;;;5045908;28;20045;-91
2023/11/27 06:21:46;;;;;;;0.57;0.40;;;9.40;99.90;;;;;;5043901;28;20044;-91
2023/11/27 06:24:14;;;;;;;0.50;0.50;;;9.40;99.90;;;;;;5043637;28;20569;-89
2023/11/27 06:26:43;;;;;;;0.50;0.40;;;9.40;99.90;;;;;;5041377;28;20049;-89
2023/11/27 06:29:09;;;;;;;0.82;0.50;;;9.40;99.90;;;;;;5040320;28;20053;-89
2023/11/27 06:31:37;;;;;;;0.47;0.47;;;9.40;1.00;;;;;;5035266;28;20356;-84
2023/11/27 06:34:05;;;;;;;0.32;0.32;;;9.30;1.00;;;;;;5035537;28;20089;-84
2023/11/27 06:36:32;;;;;;;0.60;0.50;;;9.30;1.00;;;;;;5022501;28;20111;-84
2023/11/27 06:38:59;;;;;;;0.77;0.50;;;9.30;1.00;;;;;;5037725;28;20049;-85
2023/11/27 06:41:26;;;;;;;0.47;0.40;;;9.30;1.00;;;;;;5040461;28;20092;-85
2023/11/27 06:43:53;;;;;;;0.50;0.50;;;9.30;1.00;;;;;;5029204;28;20418;-86
2023/11/27 06:46:21;;;;;;;0.90;0.60;;;9.30;1.00;;;;;;5013249;28;20107;-85
2023/11/27 06:48:50;;;;;;;0.60;0.40;;;9.30;1.00;;;;;;5018129;28;20053;-87
2023/11/27 06:51:17;;;;;;;1.23;0.40;;;9.30;1.00;;;;;;5011989;28;20060;-88
2023/11/27 06:53:43;;;;;;;0.28;0.28;;;9.30;1.00;;;;;;5009690;28;20041;-87
2023/11/27 06:56:11;;;;;;;0.52;0.40;;;9.30;1.00;;;;;;5026754;28;20049;-88
2023/11/27 06:58:38;;;;;;;1.20;0.50;;;9.30;1.00;;;;;;5023702;28;20457;-89
2023/11/27 07:01:11;;;;;;;1.48;0.85;;;9.30;1.00;;;;;;5027855;28;20458;-76
2023/11/27 07:03:42;;;;;;;0.30;0.30;;;9.30;1.00;;;;;;5023323;28;20371;-88
2023/11/27 07:06:09;;;;;;;1.48;0.60;;;9.30;1.00;;;;;;5028907;28;20038;-92
2023/11/27 07:08:38;;;;;;;0.30;0.30;;;9.30;1.00;;;;;;5025265;28;20077;-89
2023/11/27 07:11:08;;;;;;;0.93;0.73;;;9.30;1.00;;;;;;5029268;28;20872;-89
2023/11/27 07:13:35;;;;;;;1.00;0.60;;;9.30;1.00;;;;;;5029487;28;20049;-84
2023/11/27 07:16:03;;;;;;;0.50;0.50;;;9.30;1.00;;;;;;5020438;28;20601;-81
2023/11/27 07:18:31;;;;;;;0.80;0.60;;;9.30;1.00;;;;;;5021795;28;20598;-85
2023/11/27 07:21:00;;;;;;;1.00;0.60;;;9.30;1.00;;;;;;4999160;28;20154;-85
2023/11/27 07:23:28;;;;;;;1.25;0.70;;;9.30;1.00;;;;;;5016341;28;20143;-85
2023/11/27 07:25:56;;;;;;;1.73;0.60;;;9.30;1.00;;;;;;5023878;28;20065;-85
2023/11/27 07:28:23;;;;;;;0.93;0.60;;;9.30;1.00;;;;;;5024891;28;20152;-85
2023/11/27 07:30:50;;;;;;;1.20;0.80;;;9.30;1.00;;;;;;5023895;28;20063;-84
2023/11/27 07:33:17;;;;;;;0.77;0.57;;;9.20;99.90;;;;;;5016858;28;20707;-82
2023/11/27 07:35:44;;;;;;;0.50;0.43;;;9.30;1.00;;;;;;5022247;28;20060;-85
2023/11/27 07:38:10;;;;;;;1.10;0.77;;;9.30;99.90;;;;;;5017495;28;20108;-84
2023/11/27 07:40:38;;;;;;;0.40;0.40;;;9.30;99.90;;;;;;5019490;28;20049;-84
2023/11/27 07:43:10;;;;;;;0.70;0.68;;;9.30;99.90;;;;;;5023025;28;20053;-85
2023/11/27 07:45:38;;;;;;;1.42;0.98;;;9.30;99.90;;;;;;5009276;28;20061;-85
2023/11/27 07:48:05;;;;;;;1.08;0.70;;;9.30;99.90;;;;;;5025704;28;20517;-85
2023/11/27 07:50:32;;;;;;;1.27;0.90;;;9.30;99.90;;;;;;5025527;28;20057;-84
2023/11/27 07:52:58;;;;;;;1.08;0.98;;;9.30;99.90;;;;;;5022120;28;20055;-85
2023/11/27 07:55:25;;;;;;;0.73;0.60;;;9.30;99.90;;;;;;5023839;28;20412;-85
2023/11/27 07:57:52;;;;;;;1.08;0.88;;;9.30;99.90;;;;;;5025260;28;20051;-84
2023/11/27 08:00:19;;;;;;;0.93;0.77;;;9.30;99.90;;;;;;5022724;28;20045;-84
2023/11/27 08:02:47;;;;;;;1.48;1.05;;;9.30;99.90;;;;;;5014813;28;20578;-85
2023/11/27 08:05:18;;;;;;;0.80;0.70;;;9.30;99.90;;;;;;5017278;28;20872;-85
2023/11/27 08:07:46;;;;;;;1.30;0.93;;;9.30;99.90;;;;;;5020721;28;20505;-83
2023/11/27 08:10:15;;;;;;;0.77;0.77;;;9.30;99.90;;;;;;5020739;28;20041;-84
2023/11/27 08:12:42;;;;;;;1.55;1.02;;;9.30;99.90;;;;;;5023119;28;20046;-84
2023/11/27 08:15:17;;;;;;;2.30;1.25;;;9.30;99.90;;;;;;5023448;28;20046;-83
2023/11/27 08:17:45;;;;;;;1.30;1.00;;;9.30;99.90;;;;;;5024457;28;20092;-84
2023/11/27 08:20:15;;;;;;;0.88;0.73;;;9.30;99.90;;;;;;5023258;28;20077;-84
2023/11/27 08:22:42;;;;;;;1.15;1.05;;;9.40;99.90;;;;;;5023845;28;20100;-84
2023/11/27 08:25:16;;;;;;;1.15;0.90;;;9.40;99.90;;;;;;5016188;28;20049;-83
2023/11/27 08:27:46;;;;;;;1.17;0.80;;;9.40;99.90;;;;;;5025378;28;20581;-84
2023/11/27 08:30:14;;;;;;;0.85;0.70;;;9.40;99.90;;;;;;5024059;28;20426;-83
2023/11/27 08:32:40;;;;;;;1.10;1.00;;;9.40;99.90;;;;;;5024133;28;20479;-83
2023/11/27 08:35:08;;;;;;;1.23;0.90;;;9.40;99.90;;;;;;5021737;28;20059;-83
2023/11/27 08:37:39;;;;;;;0.98;0.88;;;9.40;99.90;;;;;;5014041;28;20061;-84
2023/11/27 08:40:07;;;;;;;1.00;0.88;;;9.40;99.90;;;;;;5008824;28;20053;-84
2023/11/27 08:42:35;;;;;;;0.60;0.60;;;9.40;99.90;;;;;;5021032;28;20045;-84
2023/11/27 08:45:14;;;;;;;0.90;0.80;;;9.50;99.90;;;;;;5006967;28;20064;-84
2023/11/27 08:47:50;;;;;;;1.15;1.02;;;9.50;99.90;;;;;;5022498;28;20045;-83
2023/11/27 08:50:24;;;;;;;2.05;1.42;;;9.50;99.90;;;;;;5022656;28;20049;-85
2023/11/27 08:52:56;;;;;;;1.77;1.35;;;9.40;99.90;;;;;;5021707;28;20063;-84
2023/11/27 08:55:29;;;;;;;1.60;0.90;;;9.40;99.90;;;;;;5022043;28;20519;-85
2023/11/27 08:58:00;;;;;;;1.92;1.30;;;9.40;99.90;;;;;;5022952;28;20081;-84
2023/11/27 09:00:28;;;;;;;1.23;1.10;;;9.40;99.90;;;;;;5022544;28;20080;-84
2023/11/27 09:02:57;;;;;;;1.23;1.05;;;9.40;99.90;;;;;;5022458;28;20222;-85
2023/11/27 09:05:30;;;;;;;1.90;1.20;;;9.40;99.90;;;;;;5008005;28;20785;-85
2023/11/27 09:08:05;;;;;;;1.40;1.10;;;9.50;99.90;;;;;;5007488;28;20049;-87
2023/11/27 09:10:36;;;;;;;1.33;1.10;;;9.50;96.30;;;;;;5026947;28;20049;-87
2023/11/27 09:13:05;;;;;;;1.70;1.13;;;9.50;99.90;;;;;;5019518;28;20128;-86
2023/11/27 09:15:34;;;;;;;1.45;1.30;;;9.50;88.30;;;;;;5028764;28;20115;-88
2023/11/27 09:18:03;;;;;;;1.75;1.10;;;9.50;5.90;;;;;;5028272;28;20071;-87
2023/11/27 09:20:30;;;;;;;1.67;1.33;;;9.50;1.00;;;;;;5027633;28;20113;-88
2023/11/27 09:23:01;;;;;;;1.10;1.00;;;9.60;1.00;;;;;;5027187;28;20060;-87
2023/11/27 09:25:35;;;;;;;1.95;1.50;;;9.50;1.00;;;;;;5028647;28;20406;-87
2023/11/27 09:28:04;;;;;;;1.38;1.17;;;9.60;1.00;;;;;;5028401;28;20509;-87
2023/11/27 09:30:31;;;;;;;1.48;1.30;;;9.60;1.00;;;;;;5010967;28;20076;-87
2023/11/27 09:32:57;;;;;;;1.70;1.33;;;9.60;1.00;;;;;;5026514;28;20077;-87
2023/11/27 09:35:24;;;;;;;1.30;1.15;;;9.60;99.90;;;;;;5028198;28;20049;-87
2023/11/27 09:37:51;;;;;;;2.15;1.52;;;9.60;1.00;;;;;;5009649;28;20050;-87
2023/11/27 09:40:21;;;;;;;1.38;1.10;;;9.60;99.90;;;;;;5026790;28;20041;-87
2023/11/27 09:42:50;;;;;;;1.77;1.27;;;9.60;99.90;;;;;;5010006;28;20049;-87
2023/11/27 09:45:19;;;;;;;1.65;1.40;;;9.60;99.90;;;;;;5024621;28;20068;-87
2023/11/27 09:47:49;;;;;;;1.75;1.23;;;9.60;99.90;;;;;;5025556;28;20045;-87
2023/11/27 09:50:20;;;;;;;2.03;1.77;;;9.70;99.90;;;;;;5026272;28;20833;-86
2023/11/27 09:52:52;;;;;;;1.70;1.35;;;9.80;99.90;;;;;;5009135;28;20049;-85
2023/11/27 09:55:22;;;;;;;2.00;1.58;;;9.80;99.90;;;;;;5026527;28;20061;-87
2023/11/27 09:57:50;;;;;;;1.92;1.60;;;9.90;96.70;;;;;;5025884;28;20042;-86
2023/11/27 10:00:21;;;;;;;1.60;1.40;;;10.00;1.00;;;;;;5026491;28;20054;-86
2023/11/27 10:02:49;;;;;;;2.28;1.88;;;10.00;99.90;;;;;;5009345;28;20871;-86
2023/11/27 10:05:21;;;;;;;1.70;1.60;;;10.10;99.90;;;;;;5023652;28;20080;-85
2023/11/27 10:07:54;;;;;;;2.50;1.90;;;10.20;66.10;;;;;;4991576;28;20093;-85
2023/11/27 10:10:27;;;;;;;1.60;1.40;;;10.20;1.00;;;;;;5023394;28;20049;-85
2023/11/27 10:12:57;;;;;;;1.55;1.35;;;10.20;99.90;;;;;;5023112;28;20603;-87
2023/11/27 10:15:26;;;;;;;2.08;1.73;;;10.20;99.90;;;;;;5022926;28;20050;-84
2023/11/27 10:17:56;;;;;;;3.00;1.83;;;10.20;99.90;;;;;;5021396;28;20521;-86
2023/11/27 10:20:25;;;;;;;1.70;1.30;;;10.20;99.90;;;;;;5006236;28;20064;-85
2023/11/27 10:22:53;;;;;;;1.85;1.20;;;10.20;1.00;;;;;;5020525;28;20088;-85
2023/11/27 10:25:23;;;;;;;2.83;1.77;;;10.20;99.90;;;;;;5023159;28;20046;-85
2023/11/27 10:27:57;;;;;;;5.03;2.25;;;10.10;99.90;;;;;;5022496;28;20124;-86
2023/11/27 10:30:26;;;;;;;2.15;1.75;;;10.10;99.90;;;;;;5022655;28;20049;-87
2023/11/27 10:32:54;;;;;;;2.65;1.92;;;10.00;69.90;;;;;;5022656;28;20061;-86
2023/11/27 10:35:24;;;;;;;1.67;1.52;;;10.10;1.00;;;;;;5003740;28;20054;-86
2023/11/27 10:37:54;;;;;;;1.63;1.27;;;10.10;99.90;;;;;;5016852;28;20420;-84
2023/11/27 10:40:22;;;;;;;2.45;1.55;;;10.10;99.90;;;;;;5035715;28;20057;-83
2023/11/27 10:42:49;;;;;;;1.95;1.38;;;10.20;99.90;;;;;;5020479;28;20045;-84
2023/11/27 10:45:20;;;;;;;2.17;1.77;;;10.20;1.00;;;;;;5001563;28;20062;-85
2023/11/27 10:47:52;;;;;;;1.80;1.65;;;10.20;99.90;;;;;;5012076;28;20045;-86
2023/11/27 10:50:19;;;;;;;2.35;1.40;;;10.20;99.90;;;;;;5018524;28;20516;-85
2023/11/27 10:52:49;;;;;;;1.80;1.52;;;10.20;99.90;;;;;;5002296;28;20057;-84
2023/11/27 10:55:19;;;;;;;2.40;1.73;;;10.20;99.90;;;;;;5007376;28;20166;-88
2023/11/27 10:57:49;;;;;;;2.95;2.03;;;10.30;99.90;;;;;;5015204;28;20845;-86
2023/11/27 11:03:08;;;;;;;1.83;1.20;;;10.50;1.00;;;;;;5010961;28;20076;-88
2023/11/27 11:05:45;;;;;;;1.73;1.10;;;10.60;99.90;;;;;;5005873;28;20054;-88
2023/11/27 11:08:13;;;;;;;2.17;1.77;;;10.60;88.00;;;;;;5007238;28;20143;-88
2023/11/27 11:10:41;;;;;;;3.13;1.90;;;10.60;10.50;;;;;;5007834;28;20073;-88
2023/11/27 11:13:14;;;;;;;2.35;1.67;;;10.70;99.90;;;;;;5006455;28;20057;-87
2023/11/27 11:15:51;;;;;;;1.30;1.02;;;10.70;1.00;;;;;;5018253;28;20119;-85
2023/11/27 11:18:43;;;;;;;1.88;1.50;;;10.70;1.00;;;;;;5019421;28;20421;-85
2023/11/27 11:21:32;;;;;;;1.85;1.38;;;10.70;99.90;;;;;;5021289;28;20445;-83
2023/11/27 11:24:29;;;;;;;1.40;1.27;;;10.70;99.90;;;;;;5014912;28;20061;-84
2023/11/27 11:27:07;;;;;;;1.88;1.38;;;10.60;99.90;;;;;;5021735;28;20068;-87
2023/11/27 11:29:36;;;;;;;1.67;1.35;;;10.50;99.90;;;;;;5021549;28;20064;-86
2023/11/27 11:32:13;;;;;;;1.90;1.48;;;10.50;99.90;;;;;;4987853;28;20178;-85
2023/11/27 11:34:43;;;;;;;2.03;1.27;;;10.60;99.90;;;;;;5017701;28;20089;-84
2023/11/27 11:37:15;;;;;;;1.40;1.13;;;10.60;99.90;;;;;;5015956;28;20137;-84
2023/11/27 11:39:43;;;;;;;1.40;1.30;;;10.70;99.90;;;;;;5018101;28;20722;-84
2023/11/27 11:42:17;;;;;;;2.00;1.55;;;10.80;99.90;;;;;;5017431;28;20056;-83
2023/11/27 11:45:17;;;;;;;2.38;1.45;;;10.80;76.30;;;;;;5003269;28;20124;-84
2023/11/27 11:47:51;;;;;;;2.17;1.38;;;10.70;1.00;;;;;;5019097;28;20056;-83
2023/11/27 11:50:30;;;;;;;5.00;2.20;;;10.60;33.40;;;;;;5002525;28;20069;-84
2023/11/27 11:53:05;;;;;;;1.80;1.38;;;10.60;92.70;;;;;;5019023;28;20060;-86
2023/11/27 11:55:39;;;;;;;1.77;1.60;;;10.60;99.90;;;;;;5018440;28;20132;-85
2023/11/27 11:58:06;;;;;;;2.58;1.50;;;10.50;99.90;;;;;;5018942;28;20053;-84
2023/11/27 12:00:44;;;;;;;2.53;1.45;;;10.50;99.90;;;;;;4998538;28;20744;-84
2023/11/27 12:03:16;;;;;;;1.30;0.98;;;10.50;99.90;;;;;;4993807;28;20064;-84
2023/11/27 12:05:53;;;;;;;1.43;1.10;;;10.50;99.90;;;;;;5034374;28;20077;-84
2023/11/27 12:08:25;;;;;;;1.75;1.00;;;10.50;99.90;;;;;;5016025;28;20796;-83
2023/11/27 12:10:53;;;;;;;1.35;1.00;;;10.60;99.90;;;;;;5017780;28;20532;-84
2023/11/27 12:13:23;;;;;;;1.60;1.30;;;10.60;99.90;;;;;;5000527;28;20498;-83
2023/11/27 12:15:52;;;;;;;1.67;1.10;;;10.60;99.90;;;;;;5018561;28;20379;-84
2023/11/27 12:18:20;;;;;;;1.60;1.10;;;10.70;71.60;;;;;;5018704;28;20647;-83
2023/11/27 12:20:47;;;;;;;1.75;1.13;;;10.60;99.90;;;;;;5017398;28;20072;-84
2023/11/27 12:23:14;;;;;;;1.40;1.10;;;10.60;99.90;;;;;;5016293;28;20119;-84
2023/11/27 12:25:41;;;;;;;1.02;0.80;;;10.60;99.90;;;;;;5017723;28;20076;-82
2023/11/27 12:28:09;;;;;;;1.20;0.90;;;10.50;99.90;;;;;;5018607;28;20046;-82
2023/11/27 12:30:36;;;;;;;1.05;0.90;;;10.50;99.90;;;;;;5017085;28;20107;-84
2023/11/27 12:33:04;;;;;;;0.95;0.80;;;10.50;1.00;;;;;;5017839;28;20057;-84
2023/11/27 12:35:31;;;;;;;1.17;0.93;;;10.40;1.00;;;;;;4999340;28;20652;-84
2023/11/27 12:38:03;;;;;;;1.63;0.90;;;10.40;99.90;;;;;;5015992;28;20111;-83
2023/11/27 12:40:33;;;;;;;1.10;1.00;;;10.40;95.80;;;;;;5000905;28;20194;-85
2023/11/27 12:43:04;;;;;;;1.48;0.90;;;10.50;99.90;;;;;;5016335;28;20104;-82
2023/11/27 12:45:35;;;;;;;1.40;0.80;;;10.60;1.00;;;;;;5018310;28;20442;-84
2023/11/27 12:48:07;;;;;;;0.88;0.88;;;10.60;99.90;;;;;;5015931;28;20294;-81
2023/11/27 12:50:41;;;;;;;1.88;0.98;;;10.60;99.90;;;;;;5017472;28;20156;-80
2023/11/27 12:53:08;;;;;;;1.45;1.05;;;10.50;99.90;;;;;;5016943;28;20495;-81
2023/11/27 12:55:39;;;;;;;0.90;0.80;;;10.50;1.00;;;;;;5015520;28;20137;-81
2023/11/27 12:58:10;;;;;;;1.60;1.05;;;10.40;1.00;;;;;;5014428;28;20122;-86
2023/11/27 13:00:45;;;;;;;4.03;2.20;;;10.10;99.90;;;;;;5021918;28;20053;-87
2023/11/27 13:03:21;;;;;;;2.33;1.10;;;9.70;1.00;;;;;;5022800;28;20128;-87
2023/11/27 13:05:52;;;;;;;1.75;1.10;;;9.10;99.90;;;;;;5003426;28;20046;-88
2023/11/27 13:08:26;;;;;;;2.47;0.90;;;8.70;1.00;;;;;;5005879;28;20041;-87
2023/11/27 13:10:53;;;;;;;1.38;0.85;;;8.50;99.90;;;;;;5024142;28;20049;-88